PRINT OUT SECTION, show »

METAR EPBY 230200Z 18010KT 140V200 9999 BKN028 BKN039 08/06 Q0989=

METAR EPGD 230200Z 17012KT 5000 BR FEW004 BKN008 07/06 Q0987 =

METAR EPKK 230200Z 13002KT 9999 FEW031 BKN063 09/04 Q0997 =

METAR EPKT 230200Z 19010KT 9999 -RA SCT032 OVC040 09/04 Q0996 =

METAR EPLB 230200Z 17008KT CAVOK 08/05 Q0999 =

METAR EPLL 230200Z 18007KT 130V230 9999 -RA BKN027 OVC036 08/06 Q0993
=

METAR EPML 230200Z NIL=

METAR EPMO 230200Z 14008KT 110V170 9999 BKN036 08/04 Q0994 =

METAR EPPO 230200Z 19010KT CAVOK 10/07 Q0989 =

METAR EPRA 230200Z 18009KT CAVOK 08/05 Q0996=

METAR EPRZ 230200Z 19014KT 9999 -SHRA FEW033CB 09/03 Q0999 =

METAR EPSC 230200Z 17013KT 9999 FEW015 10/08 Q0984 =

METAR EPSY 230200Z 17010KT 130V210 9999 OVC033 07/04 Q0993=

METAR EPWA 230200Z 15010KT 9999 BKN042 08/04 Q0995 NOSIG=

METAR EPWR 230200Z 17011KT 9999 -RA NSC 11/07 Q0992 =

METAR EPZG 230200Z NIL=
 METAR EPKT
Lokalizacja:EPKT Katowice Pyrzowice
Czas:02:00 UTC
Średni kierunek wiatru:190 °
Średnia prędkość wiatru:10 węzłów
Widzialność:10 km i więcej
Opad:deszcz
Intensywność:słaba
Pierwsza warstwa chmur:3/8 do 4/8, wysokość podstawy 3200 FT
Druga warstwa chmur:8/8, wysokość podstawy 4000 FT
Temperatura powietrza:9 °C
Temperatura punktu rosy:4 °C
Ciśnienie QNH:996 hPa